Terminal Aerodrome Forecast
Issued by NWS

Home | Current Version | Previous Version | Text Only | Print | Product List | Glossary Off
Versions: 1 2 3 4 5 6 7 8 9 10 11 12 13 14 15 16 17 18 19

000
FTUS43 KMPX 201743
TAFRNH
TAF
KRNH 201743Z 2018/2118 33003KT P6SM SCT150
     FM210800 12003KT 5SM BR FEW200
     FM211400 15006KT P6SM SCT050 BKN200=

USA.gov is the U.S. government's official web portal to all federal, state and local government web resources and services.